Time;durP1;ratioP1;P1;durP2;ratioP2;P2;SDS_P1;SDS_P2;PMS_P1;PMS_P2;Temp;Humidity;BMP_temperature;BMP_pressure;BME280_temperature;BME280_humidity;BME280_pressure;Samples;Min_cycle;Max_cycle;Signal;HPM_P1;HPM_P2
2021/01/22 00:01:03;;;;;;;90.47;30.38;;;;;;;-2.60;94.50;99299.81;3513865;28;20555;-54
2021/01/22 00:02:45;;;;;;;81.07;29.55;;;;;;;-2.60;94.36;99307.44;3510477;28;20425;-55
2021/01/22 00:04:27;;;;;;;90.53;33.00;;;;;;;-2.60;94.56;99304.88;3514643;28;20051;-55
2021/01/22 00:06:11;;;;;;;87.18;31.48;;;;;;;-2.62;94.77;99297.19;3511423;28;20052;-55
2021/01/22 00:07:53;;;;;;;87.88;30.20;;;;;;;-2.63;94.64;99293.78;3514221;28;20563;-54
2021/01/22 00:09:34;;;;;;;86.45;29.17;;;;;;;-2.64;94.48;99296.22;3511080;28;20040;-54
2021/01/22 00:11:17;;;;;;;103.53;33.45;;;;;;;-2.63;94.71;99293.78;3514208;28;20040;-54
2021/01/22 00:12:58;;;;;;;89.05;32.33;;;;;;;-2.63;94.87;99295.44;3511249;28;20055;-55
2021/01/22 00:14:39;;;;;;;90.18;30.08;;;;;;;-2.63;94.98;99281.06;3513544;28;20513;-55
2021/01/22 00:16:21;;;;;;;114.18;36.40;;;;;;;-2.62;95.02;99294.63;3511762;28;20056;-53
2021/01/22 00:18:03;;;;;;;98.80;33.40;;;;;;;-2.63;95.02;99282.75;3514425;28;20044;-54
2021/01/22 00:19:45;;;;;;;107.47;33.97;;;;;;;-2.62;95.08;99290.47;3512186;28;20570;-54
2021/01/22 00:21:26;;;;;;;102.22;34.60;;;;;;;-2.62;95.21;99279.41;3516786;28;20086;-54
2021/01/22 00:23:08;;;;;;;101.55;35.08;;;;;;;-2.60;95.01;99285.44;3509182;28;20523;-55
2021/01/22 00:24:50;;;;;;;109.78;35.17;;;;;;;-2.60;95.27;99279.50;3510779;28;20105;-55
2021/01/22 00:26:32;;;;;;;100.90;34.45;;;;;;;-2.62;95.36;99282.84;3509465;28;20531;-55
2021/01/22 00:28:13;;;;;;;101.32;33.47;;;;;;;-2.62;95.29;99275.22;3511799;28;20502;-55
2021/01/22 00:29:55;;;;;;;122.80;38.38;;;;;;;-2.62;95.20;99269.25;3509279;28;20101;-54
2021/01/22 00:31:36;;;;;;;112.07;35.67;;;;;;;-2.62;95.42;99274.31;3511685;28;20064;-52
2021/01/22 00:33:18;;;;;;;103.47;35.22;;;;;;;-2.63;95.48;99270.06;3509222;28;20091;-55
2021/01/22 00:35:00;;;;;;;101.95;33.25;;;;;;;-2.64;95.25;99273.38;3511667;28;20056;-55
2021/01/22 00:36:41;;;;;;;111.13;37.83;;;;;;;-2.65;95.61;99264.88;3513946;28;20051;-54
2021/01/22 00:38:23;;;;;;;106.65;33.95;;;;;;;-2.65;95.38;99266.56;3511641;28;20082;-55
2021/01/22 00:40:08;;;;;;;111.80;35.33;;;;;;;-2.66;95.72;99274.94;3509409;28;20496;-55
2021/01/22 00:41:51;;;;;;;105.43;33.15;;;;;;;-2.67;95.70;99265.56;3511329;28;20079;-54
2021/01/22 00:43:32;;;;;;;131.27;39.92;;;;;;;-2.66;95.68;99259.72;3509258;28;20040;-55
2021/01/22 00:45:14;;;;;;;121.93;35.45;;;;;;;-2.68;95.78;99267.22;3510101;28;20482;-54
2021/01/22 00:46:56;;;;;;;118.72;36.47;;;;;;;-2.68;95.74;99254.53;3509162;28;20047;-55
2021/01/22 00:48:38;;;;;;;109.18;33.22;;;;;;;-2.66;95.77;99262.25;3511777;28;20060;-54
2021/01/22 00:50:19;;;;;;;118.78;38.38;;;;;;;-2.65;95.78;99256.41;3509223;28;20081;-46
2021/01/22 00:52:01;;;;;;;134.23;40.58;;;;;;;-2.65;95.92;99253.84;3511388;28;20048;-44
2021/01/22 00:53:43;;;;;;;152.82;38.42;;;;;;;-2.66;95.89;99250.41;3509245;28;20047;-44
2021/01/22 00:55:24;;;;;;;121.78;35.28;;;;;;;-2.66;95.95;99247.88;3510606;28;20044;-44
2021/01/22 00:57:07;;;;;;;116.35;36.55;;;;;;;-2.66;95.85;99247.00;3509377;28;20051;-44
2021/01/22 00:58:48;;;;;;;121.20;35.67;;;;;;;-2.65;96.04;99249.66;3511703;28;20051;-44
2021/01/22 01:00:30;;;;;;;120.82;37.08;;;;;;;-2.64;96.20;99250.50;3509172;28;20511;-44
2021/01/22 01:02:11;;;;;;;137.30;38.28;;;;;;;-2.63;96.11;99247.22;3511774;28;20088;-44
2021/01/22 01:03:53;;;;;;;127.43;35.70;;;;;;;-2.63;96.23;99243.00;3508858;28;20048;-45
2021/01/22 01:05:35;;;;;;;118.05;32.70;;;;;;;-2.62;96.21;99241.31;3511578;28;20120;-44
2021/01/22 01:07:16;;;;;;;130.13;37.50;;;;;;;-2.62;96.10;99239.69;3509029;28;20040;-45
2021/01/22 01:08:58;;;;;;;136.70;39.13;;;;;;;-2.61;96.13;99243.09;3511426;28;20048;-45
2021/01/22 01:10:39;;;;;;;160.40;38.50;;;;;;;-2.61;96.38;99235.47;3508901;28;20052;-44
2021/01/22 01:12:22;;;;;;;126.32;37.03;;;;;;;-2.60;96.39;99231.25;3511318;28;20074;-45
2021/01/22 01:14:03;;;;;;;130.10;36.08;;;;;;;-2.60;96.50;99237.19;3508753;28;20121;-44
2021/01/22 01:15:45;;;;;;;159.05;40.28;;;;;;;-2.60;96.04;99237.19;3511597;28;20044;-46
2021/01/22 01:17:26;;;;;;;114.82;34.55;;;;;;;-2.60;96.26;99229.59;3509087;28;20052;-45
2021/01/22 01:19:08;;;;;;;121.50;36.00;;;;;;;-2.59;96.45;99223.72;3511449;28;20052;-44
2021/01/22 01:20:50;;;;;;;121.35;36.97;;;;;;;-2.57;96.16;99223.84;3508822;28;20388;-45
2021/01/22 01:22:31;;;;;;;107.88;31.70;;;;;;;-2.57;96.49;99224.69;3511431;28;20524;-44
2021/01/22 01:24:13;;;;;;;138.20;37.97;;;;;;;-2.55;96.37;99224.78;3508526;28;20055;-44
2021/01/22 01:25:54;;;;;;;162.57;41.83;;;;;;;-2.55;96.28;99230.72;3511381;28;20109;-44
2021/01/22 01:27:37;;;;;;;141.05;38.50;;;;;;;-2.55;96.27;99223.13;3508786;28;20044;-45
2021/01/22 01:29:18;;;;;;;127.28;37.88;;;;;;;-2.53;96.49;99218.13;3511378;28;20420;-55
2021/01/22 01:31:00;;;;;;;120.28;35.53;;;;;;;-2.53;96.63;99213.06;3508222;28;20497;-55
2021/01/22 01:32:41;;;;;;;107.75;34.00;;;;;;;-2.52;96.29;99220.75;3510176;28;20047;-54
2021/01/22 01:34:23;;;;;;;119.18;34.25;;;;;;;-2.51;96.53;99224.16;3508490;28;20131;-55
2021/01/22 01:36:06;;;;;;;114.15;34.65;;;;;;;-2.51;96.44;99224.16;3511134;28;20509;-54
2021/01/22 01:37:47;;;;;;;146.05;39.03;;;;;;;-2.51;96.43;99216.56;3506289;28;20051;-55
2021/01/22 01:39:29;;;;;;;160.23;35.95;;;;;;;-2.50;96.38;99203.06;3511095;28;20059;-55
2021/01/22 01:41:10;;;;;;;136.52;39.53;;;;;;;-2.50;96.29;99216.63;3508456;28;20094;-55
2021/01/22 01:42:53;;;;;;;135.82;37.90;;;;;;;-2.51;96.63;99212.38;3511360;28;20048;-55
2021/01/22 01:44:35;;;;;;;90.97;31.48;;;;;;;-2.50;96.63;99214.09;3507334;28;20051;-55
2021/01/22 01:46:16;;;;;;;112.82;35.35;;;;;;;-2.50;96.65;99203.94;3511243;28;20102;-55
2021/01/22 01:47:58;;;;;;;146.48;34.55;;;;;;;-2.49;96.44;99207.38;3508264;28;20508;-53
2021/01/22 01:49:40;;;;;;;123.63;34.90;;;;;;;-2.49;96.71;99199.75;3511037;28;20588;-55
2021/01/22 01:51:21;;;;;;;139.90;38.35;;;;;;;-2.49;96.70;99199.75;3508320;28;20044;-55
2021/01/22 01:53:03;;;;;;;150.95;39.50;;;;;;;-2.49;96.58;99194.69;3511064;28;20048;-55
2021/01/22 01:54:45;;;;;;;145.10;39.38;;;;;;;-2.49;96.50;99199.75;3508172;28;20496;-54
2021/01/22 01:56:27;;;;;;;118.63;36.25;;;;;;;-2.48;96.47;99196.41;3510876;28;20425;-54
2021/01/22 01:58:12;;;;;;;133.68;37.70;;;;;;;-2.48;96.51;99198.97;3508367;28;20055;-44
2021/01/22 01:59:55;;;;;;;121.55;34.85;;;;;;;-2.47;96.68;99198.19;3510965;28;20059;-45
2021/01/22 02:01:37;;;;;;;117.63;33.40;;;;;;;-2.47;96.92;99199.06;3508257;28;20097;-44
2021/01/22 02:03:19;;;;;;;135.80;34.78;;;;;;;-2.46;96.79;99193.19;3511102;28;20356;-44
2021/01/22 02:05:01;;;;;;;131.00;36.50;;;;;;;-2.44;96.57;99191.63;3507612;28;20056;-47
2021/01/22 02:06:43;;;;;;;175.40;38.40;;;;;;;-2.44;96.90;99183.13;3510485;28;20044;-45
2021/01/22 02:08:25;;;;;;;111.45;32.80;;;;;;;-2.44;96.71;99178.91;3508678;28;20117;-44
2021/01/22 02:10:08;;;;;;;168.80;41.42;;;;;;;-2.44;96.81;99171.31;3510250;28;20056;-45
2021/01/22 02:11:51;;;;;;;136.27;36.40;;;;;;;-2.43;96.53;99180.66;3508809;28;20059;-45
2021/01/22 02:13:34;;;;;;;128.52;34.35;;;;;;;-2.43;96.58;99184.88;3510279;28;20776;-44
2021/01/22 02:15:17;;;;;;;122.15;35.40;;;;;;;-2.44;96.61;99206.84;3508881;28;20059;-44
2021/01/22 02:17:00;;;;;;;126.65;38.47;;;;;;;-2.42;96.68;99191.72;3509987;28;20079;-54
2021/01/22 02:18:46;;;;;;;121.88;35.35;;;;;;;-2.41;96.85;99197.66;3509495;28;20412;-54
2021/01/22 02:20:40;;;;;;;125.63;34.38;;;;;;;-2.40;96.81;99197.75;3508945;28;20511;-54
2021/01/22 02:22:21;;;;;;;151.25;40.35;;;;;;;-2.40;96.85;99185.03;3510090;28;20094;-53
2021/01/22 02:24:07;;;;;;;117.57;32.97;;;;;;;-2.39;96.77;99194.41;3508632;28;20048;-55
2021/01/22 02:25:51;;;;;;;140.38;38.15;;;;;;;-2.39;97.05;99185.91;3509375;28;20500;-44
2021/01/22 02:27:35;;;;;;;118.00;34.58;;;;;;;-2.38;96.86;99182.59;3508457;28;20063;-44
2021/01/22 02:29:17;;;;;;;;;;;;;;;-2.39;96.84;99179.16;3510599;28;20044;-44
2021/01/22 02:30:59;;;;;;;113.55;32.80;;;;;;;-2.38;97.08;99186.00;3510419;28;20404;-44
2021/01/22 02:32:46;;;;;;;112.00;31.38;;;;;;;-2.36;96.88;99181.88;3510391;28;20055;-44
2021/01/22 02:34:29;;;;;;;124.93;33.95;;;;;;;-2.36;97.17;99184.41;3511540;28;20047;-45
2021/01/22 02:36:13;;;;;;;128.70;36.00;;;;;;;-2.35;96.98;99178.56;3509501;28;20051;-44
2021/01/22 02:37:56;;;;;;;134.73;37.47;;;;;;;-2.33;97.09;99176.13;3508011;28;20051;-44
2021/01/22 02:39:40;;;;;;;121.55;35.28;;;;;;;-2.32;96.91;99175.31;3509388;28;20047;-45
2021/01/22 02:41:23;;;;;;;146.15;36.80;;;;;;;-2.31;96.93;99179.63;3507967;28;20562;-44
2021/01/22 02:43:06;;;;;;;126.63;33.47;;;;;;;-2.30;97.19;99173.72;3509822;28;20048;-44
2021/01/22 02:44:48;;;;;;;138.30;39.28;;;;;;;-2.30;96.94;99179.69;3506858;28;20312;-44
2021/01/22 02:46:31;;;;;;;118.57;35.42;;;;;;;-2.29;97.25;99175.50;3510359;28;20048;-45
2021/01/22 02:48:15;;;;;;;124.22;35.45;;;;;;;-2.29;97.18;99158.56;3508021;28;20078;-44
2021/01/22 02:49:56;;;;;;;126.93;34.47;;;;;;;-2.29;97.04;99170.41;3510156;28;20078;-44
2021/01/22 02:51:38;;;;;;;133.23;35.08;;;;;;;-2.29;96.88;99160.25;3507708;28;20044;-45
2021/01/22 02:53:19;;;;;;;127.40;33.00;;;;;;;-2.29;97.18;99158.56;3510277;28;20051;-44
2021/01/22 02:55:01;;;;;;;110.80;32.35;;;;;;;-2.28;97.03;99162.00;3508063;28;20048;-44
2021/01/22 02:56:48;;;;;;;123.78;34.70;;;;;;;-2.27;97.01;99154.44;3510522;28;20101;-46
2021/01/22 02:58:37;;;;;;;132.35;38.42;;;;;;;-2.27;96.82;99154.44;3507657;28;20048;-45
2021/01/22 03:00:23;;;;;;;120.40;35.88;;;;;;;-2.27;96.91;99145.97;3510345;28;20063;-45
2021/01/22 03:02:15;;;;;;;108.80;32.38;;;;;;;-2.25;97.13;99144.38;3507956;28;20071;-55
2021/01/22 03:04:04;;;;;;;101.15;30.90;;;;;;;-2.25;97.14;99147.81;3509982;28;20054;-55
2021/01/22 03:05:47;;;;;;;135.75;36.47;;;;;;;-2.24;97.00;99143.59;3508361;28;20052;-53
2021/01/22 03:07:35;;;;;;;118.15;34.38;;;;;;;-2.24;97.18;99141.06;3509544;28;20048;-55
2021/01/22 03:09:20;;;;;;;134.90;36.85;;;;;;;-2.24;96.98;99133.44;3508334;28;20504;-53
2021/01/22 03:11:05;;;;;;;124.53;36.05;;;;;;;-2.22;97.32;99138.59;3508199;28;20054;-55
2021/01/22 03:12:48;;;;;;;150.75;38.58;;;;;;;-2.23;96.93;99137.72;3508753;28;20044;-54
2021/01/22 03:14:34;;;;;;;147.25;39.88;;;;;;;-2.24;97.12;99129.22;3508177;28;20044;-44
2021/01/22 03:16:15;;;;;;;134.18;37.28;;;;;;;-2.22;97.22;99141.16;3509404;28;20082;-44
2021/01/22 03:18:16;;;;;;;129.20;37.30;;;;;;;-2.22;97.05;99136.94;3508186;28;20094;-44
2021/01/22 03:19:58;;;;;;;117.05;35.67;;;;;;;-2.21;97.17;99137.81;3509282;28;20055;-45
2021/01/22 03:21:40;;;;;;;128.18;36.22;;;;;;;-2.21;97.32;99135.25;3507441;28;20549;-43
2021/01/22 03:23:22;;;;;;;134.18;37.40;;;;;;;-2.19;97.48;99137.09;3509800;28;20047;-44
2021/01/22 03:25:05;;;;;;;133.05;38.45;;;;;;;-2.19;97.32;99138.75;3507491;28;20436;-44
2021/01/22 03:26:46;;;;;;;138.55;39.92;;;;;;;-2.18;97.26;99150.69;3510013;28;20058;-44
2021/01/22 03:28:28;;;;;;;137.25;36.92;;;;;;;-2.17;97.24;99147.38;3510952;28;20052;-45
2021/01/22 03:30:11;;;;;;;124.32;35.90;;;;;;;-2.17;97.37;99144.81;3509222;28;20051;-44
2021/01/22 03:31:53;;;;;;;136.25;37.63;;;;;;;-2.16;97.23;99144.91;3509397;28;20079;-44
2021/01/22 03:33:35;;;;;;;134.20;38.33;;;;;;;-2.15;97.50;99140.69;3509383;28;20117;-44
2021/01/22 03:35:17;;;;;;;156.48;40.67;;;;;;;-2.15;97.36;99149.19;3507355;28;20044;-55
2021/01/22 03:36:59;;;;;;;145.50;40.50;;;;;;;-2.15;97.53;99146.63;3509132;28;20083;-56
2021/01/22 03:38:42;;;;;;;145.13;39.47;;;;;;;-2.15;97.53;99146.63;3507040;28;20403;-54
2021/01/22 03:40:24;;;;;;;116.07;38.33;;;;;;;-2.14;97.35;99152.59;3508499;28;20058;-56
2021/01/22 03:42:05;;;;;;;128.70;36.75;;;;;;;-2.13;97.49;99154.34;3506594;28;20048;-56
2021/01/22 03:43:47;;;;;;;128.90;35.75;;;;;;;-2.13;97.49;99149.28;3509183;28;20044;-55
2021/01/22 03:45:29;;;;;;;124.05;36.55;;;;;;;-2.12;97.52;99148.50;3505432;28;20055;-54
2021/01/22 03:47:11;;;;;;;138.30;35.85;;;;;;;-2.12;97.33;99143.41;3509119;28;20060;-55
2021/01/22 03:48:53;;;;;;;155.70;38.60;;;;;;;-2.12;97.55;99140.88;3506746;28;20044;-55
2021/01/22 03:50:34;;;;;;;118.70;35.58;;;;;;;-2.12;97.44;99141.75;3509112;28;20086;-51
2021/01/22 03:52:16;;;;;;;117.32;35.15;;;;;;;-2.11;97.55;99138.38;3506419;28;20048;-55
2021/01/22 03:53:58;;;;;;;130.63;35.13;;;;;;;-2.09;97.37;99143.56;3509127;28;20074;-54
2021/01/22 03:55:39;;;;;;;110.90;34.20;;;;;;;-2.09;97.30;99133.41;3507716;28;20048;-55
2021/01/22 03:57:21;;;;;;;107.45;33.97;;;;;;;-2.08;97.56;99143.66;3511509;28;20063;-54
2021/01/22 03:59:03;;;;;;;111.57;34.00;;;;;;;-2.07;97.36;99137.78;3509091;28;20621;-55
2021/01/22 04:00:45;;;;;;;122.32;35.10;;;;;;;-2.06;97.65;99141.19;3512057;28;20424;-56
2021/01/22 04:02:26;;;;;;;154.63;40.80;;;;;;;-2.06;97.40;99141.19;3509663;28;20048;-55
2021/01/22 04:04:08;;;;;;;119.95;35.10;;;;;;;-2.07;97.36;99132.69;3512093;28;20135;-55
2021/01/22 04:05:49;;;;;;;125.38;36.15;;;;;;;-2.06;97.34;99144.59;3509347;28;20662;-55
2021/01/22 04:07:31;;;;;;;128.30;36.45;;;;;;;-2.03;97.46;99151.53;3512150;28;20052;-54
2021/01/22 04:09:13;;;;;;;124.60;35.72;;;;;;;-2.03;97.51;99141.38;3509342;28;20109;-55
2021/01/22 04:10:54;;;;;;;123.53;38.15;;;;;;;-2.02;97.45;99138.03;3511802;28;20508;-55
2021/01/22 04:12:36;;;;;;;148.85;41.80;;;;;;;-2.01;97.33;99149.94;3509459;28;20587;-55
2021/01/22 04:14:17;;;;;;;133.10;38.33;;;;;;;-2.01;97.48;99141.47;3512164;28;20059;-54
2021/01/22 04:16:00;;;;;;;129.75;37.05;;;;;;;-2.01;97.28;99141.47;3509381;28;20097;-54
2021/01/22 04:17:42;;;;;;;153.18;38.80;;;;;;;-2.00;97.46;99133.03;3512120;28;20055;-55
2021/01/22 04:19:24;;;;;;;140.80;41.80;;;;;;;-2.01;97.43;99132.16;3509134;28;20485;-55
2021/01/22 04:21:05;;;;;;;139.63;39.20;;;;;;;-2.00;97.56;99133.91;3512099;28;20086;-54
2021/01/22 04:22:49;;;;;;;122.38;35.90;;;;;;;-2.00;97.56;99131.38;3509440;28;20074;-55
2021/01/22 04:24:30;;;;;;;150.05;37.80;;;;;;;-1.99;97.64;99133.13;3514758;28;20056;-56
2021/01/22 04:26:12;;;;;;;153.82;39.88;;;;;;;-1.98;97.65;99134.88;3510869;28;20550;-56
2021/01/22 04:28:12;;;;;;;153.77;39.50;;;;;;;-1.98;97.54;99123.81;3511841;28;20512;-55
2021/01/22 04:29:53;;;;;;;144.93;38.20;;;;;;;-1.98;97.60;99122.16;3509404;28;20093;-56
2021/01/22 04:31:35;;;;;;;144.55;38.20;;;;;;;-1.96;97.69;99119.72;3511446;28;20390;-55
2021/01/22 04:33:17;;;;;;;146.18;37.38;;;;;;;-1.96;97.53;99127.34;3509514;28;20070;-55
2021/01/22 04:34:59;;;;;;;129.93;38.55;;;;;;;-1.96;97.50;99123.13;3511520;28;20048;-55
2021/01/22 04:36:40;;;;;;;162.75;41.53;;;;;;;-1.95;97.54;99123.97;3509748;28;20496;-56
2021/01/22 04:38:22;;;;;;;158.80;40.30;;;;;;;-1.94;97.59;99125.75;3511293;28;20052;-55
2021/01/22 04:40:04;;;;;;;143.23;38.13;;;;;;;-1.95;97.72;99129.94;3509785;28;20035;-56
2021/01/22 04:41:47;;;;;;;161.68;39.97;;;;;;;-1.94;97.83;99131.69;3510861;28;20059;-56
2021/01/22 04:43:29;;;;;;;153.02;41.33;;;;;;;-1.93;97.73;99122.41;3510408;28;20094;-55
2021/01/22 04:45:13;;;;;;;122.78;34.63;;;;;;;-1.93;97.53;99117.31;3509036;28;20043;-56
2021/01/22 04:46:56;;;;;;;150.65;40.22;;;;;;;-1.91;97.61;99123.34;3509729;28;20055;-56
2021/01/22 04:48:38;;;;;;;183.13;46.83;;;;;;;-1.91;97.73;99123.34;3510414;28;20048;-55
2021/01/22 04:50:21;;;;;;;144.93;39.83;;;;;;;-1.91;97.75;99119.16;3510853;28;20780;-55
2021/01/22 04:52:09;;;;;;;140.57;38.78;;;;;;;-1.90;97.57;99122.56;3509757;28;20047;-56
2021/01/22 04:53:54;;;;;;;177.07;44.22;;;;;;;-1.90;97.81;99120.03;3510678;28;20134;-56
2021/01/22 04:55:40;;;;;;;137.20;38.58;;;;;;;-1.89;97.73;99125.19;3509952;28;20134;-55
2021/01/22 04:57:22;;;;;;;144.70;38.53;;;;;;;-1.88;97.85;99132.03;3510617;28;20051;-56
2021/01/22 04:59:09;;;;;;;137.23;38.38;;;;;;;-1.90;97.78;99120.03;3509690;28;20048;-46
2021/01/22 05:00:52;;;;;;;145.35;37.95;;;;;;;-1.87;97.84;99128.69;3511124;28;20075;-55
2021/01/22 05:02:34;;;;;;;143.77;37.33;;;;;;;-1.86;97.96;99132.09;3509341;28;20129;-56
2021/01/22 05:04:17;;;;;;;163.82;44.03;;;;;;;-1.84;97.94;99137.28;3511149;28;20090;-55
2021/01/22 05:05:59;;;;;;;138.18;38.63;;;;;;;-1.86;97.50;99125.38;3508942;28;20059;-56
2021/01/22 05:07:40;;;;;;;146.15;40.53;;;;;;;-1.84;97.88;99134.72;3511322;28;20117;-55
2021/01/22 05:09:24;;;;;;;151.63;40.17;;;;;;;-1.83;97.83;99137.34;3509041;28;20044;-56
2021/01/22 05:11:05;;;;;;;154.10;44.25;;;;;;;-1.83;97.74;99127.19;3510956;28;20516;-56
2021/01/22 05:12:47;;;;;;;142.82;38.33;;;;;;;-1.82;97.90;99125.50;3509262;28;20474;-56
2021/01/22 05:14:28;;;;;;;132.20;36.78;;;;;;;-1.82;97.95;99128.94;3510814;28;20044;-56
2021/01/22 05:16:12;;;;;;;170.70;43.92;;;;;;;-1.81;97.59;99134.91;3509011;28;20547;-46
2021/01/22 05:17:59;;;;;;;155.43;39.33;;;;;;;-1.81;97.72;99134.91;3511142;28;20568;-45
2021/01/22 05:19:44;;;;;;;144.57;41.20;;;;;;;-1.81;97.69;99128.13;3508945;28;20448;-46
2021/01/22 05:21:39;;;;;;;148.93;40.10;;;;;;;-1.80;97.75;99132.44;3511645;28;20044;-45
2021/01/22 05:23:32;;;;;;;141.23;40.63;;;;;;;-1.78;97.74;99137.63;3511032;28;20044;-46
2021/01/22 05:25:14;;;;;;;152.70;40.97;;;;;;;-1.79;97.90;99130.78;3512726;28;20594;-44
2021/01/22 05:27:04;;;;;;;132.15;37.55;;;;;;;-1.78;97.82;99128.31;3509220;28;20068;-45
2021/01/22 05:28:47;;;;;;;128.68;37.08;;;;;;;-1.77;97.57;99127.53;3510833;28;20559;-45
2021/01/22 05:30:30;;;;;;;137.00;38.58;;;;;;;-1.77;97.63;99124.09;3510197;28;20047;-44
2021/01/22 05:32:25;;;;;;;125.55;38.08;;;;;;;-1.76;97.54;99125.84;3511005;28;20048;-45
2021/01/22 05:34:08;;;;;;;135.13;38.85;;;;;;;-1.76;97.58;99134.34;3510059;28;20044;-45
2021/01/22 05:35:50;;;;;;;140.93;39.35;;;;;;;-1.76;97.79;99129.25;3509104;28;20048;-45
2021/01/22 05:37:32;;;;;;;145.32;41.33;;;;;;;-1.76;97.74;99125.84;3510898;28;20051;-55
2021/01/22 05:39:23;;;;;;;123.95;39.38;;;;;;;-1.76;97.52;99139.44;3509240;28;20048;-55
2021/01/22 05:41:06;;;;;;;129.10;36.78;;;;;;;-1.74;97.57;99126.81;3509780;28;20052;-57
2021/01/22 05:42:49;;;;;;;129.57;36.97;;;;;;;-1.74;97.57;99134.44;3508997;28;20048;-56
2021/01/22 05:44:31;;;;;;;143.25;39.40;;;;;;;-1.75;97.61;99131.03;3509154;28;20048;-55
2021/01/22 05:46:13;;;;;;;146.23;41.45;;;;;;;-1.75;97.67;99128.47;3508773;28;20044;-56
2021/01/22 05:47:55;;;;;;;136.95;38.40;;;;;;;-1.74;97.61;99134.44;3510613;28;20428;-56
2021/01/22 05:49:56;;;;;;;152.43;41.45;;;;;;;-1.73;97.55;99133.66;3508870;28;20048;-55
2021/01/22 05:51:37;;;;;;;140.55;41.63;;;;;;;-1.74;97.74;99131.91;3510054;28;20056;-56
2021/01/22 05:53:20;;;;;;;139.73;39.60;;;;;;;-1.73;97.65;99133.66;3505512;28;20044;-56
2021/01/22 05:55:18;;;;;;;138.15;39.92;;;;;;;-1.72;97.74;99145.56;3510616;28;20054;-55
2021/01/22 05:56:59;;;;;;;151.35;40.70;;;;;;;-1.73;97.54;99143.81;3507222;28;20044;-57
2021/01/22 05:58:42;;;;;;;143.23;40.15;;;;;;;-1.72;97.80;99145.56;3510795;28;20072;-56
2021/01/22 06:00:27;;;;;;;135.00;40.42;;;;;;;-1.71;97.71;99139.69;3508245;28;20040;-56
2021/01/22 06:02:27;;;;;;;139.80;40.17;;;;;;;-1.70;97.88;99139.78;3508258;28;20048;-57
2021/01/22 06:04:09;;;;;;;140.63;37.85;;;;;;;-1.69;97.76;99144.06;3508267;28;20189;-57
2021/01/22 06:05:55;;;;;;;130.52;39.58;;;;;;;-1.68;97.72;99147.50;3510122;28;20055;-57
2021/01/22 06:07:37;;;;;;;123.18;37.13;;;;;;;-1.67;97.52;99144.13;3508996;28;20420;-56
2021/01/22 06:09:33;;;;;;;123.47;38.42;;;;;;;-1.65;97.56;99144.22;3509692;28;20059;-57
2021/01/22 06:11:16;;;;;;;122.60;36.58;;;;;;;-1.64;97.77;99149.41;3508762;28;20055;-57
2021/01/22 06:13:01;;;;;;;128.90;37.97;;;;;;;-1.62;97.56;99145.25;3508737;28;20109;-57
2021/01/22 06:14:42;;;;;;;125.38;37.63;;;;;;;-1.61;97.64;99141.94;3509186;28;20512;-57
2021/01/22 06:16:26;;;;;;;123.68;36.83;;;;;;;-1.60;97.43;99143.66;3508679;28;20049;-57
2021/01/22 06:18:11;;;;;;;116.20;36.03;;;;;;;-1.58;97.43;99138.66;3509078;28;20044;-57
2021/01/22 06:19:54;;;;;;;123.53;34.60;;;;;;;-1.57;97.58;99140.44;3513394;28;20056;-57
2021/01/22 06:21:39;;;;;;;136.57;37.70;;;;;;;-1.55;97.54;99133.75;3509390;28;20531;-57
2021/01/22 06:23:22;;;;;;;117.57;37.13;;;;;;;-1.55;97.54;99134.63;3510637;28;20539;-57
2021/01/22 06:25:05;;;;;;;138.52;40.38;;;;;;;-1.55;97.68;99129.53;3510228;28;20052;-57
2021/01/22 06:26:48;;;;;;;137.13;40.63;;;;;;;-1.55;97.33;99128.66;3508482;28;20043;-57
2021/01/22 06:28:32;;;;;;;125.57;39.08;;;;;;;-1.54;97.60;99128.75;3510289;28;20052;-57
2021/01/22 06:30:14;;;;;;;130.88;41.20;;;;;;;-1.53;97.35;99127.06;3507520;28;20504;-57
2021/01/22 06:31:56;;;;;;;131.90;40.95;;;;;;;-1.51;97.45;99135.66;3508999;28;20056;-55
2021/01/22 06:33:50;;;;;;;131.93;40.75;;;;;;;-1.52;97.27;99131.38;3508135;28;20141;-57
2021/01/22 06:35:34;;;;;;;131.70;39.15;;;;;;;-1.51;97.30;99138.19;3509388;28;20132;-57
2021/01/22 06:37:17;;;;;;;143.32;44.80;;;;;;;-1.51;97.35;99136.50;3506689;28;20088;-57
2021/01/22 06:39:01;;;;;;;160.23;47.67;;;;;;;-1.50;97.55;99129.78;3510819;28;20048;-57
2021/01/22 06:40:42;;;;;;;;;;;;;;;-1.49;97.47;99129.88;3508300;28;20056;-57
2021/01/22 06:42:24;;;;;;;125.78;39.70;;;;;;;-1.46;97.49;99125.72;3510557;28;19924;-57
2021/01/22 06:44:07;;;;;;;137.30;39.97;;;;;;;-1.44;97.61;99132.63;3506114;28;20476;-57
2021/01/22 06:45:48;;;;;;;117.00;40.20;;;;;;;-1.44;97.27;99130.09;3510407;28;20417;-57
2021/01/22 06:47:30;;;;;;;124.95;39.95;;;;;;;-1.43;97.38;99120.81;3507888;28;20083;-57
2021/01/22 06:49:12;;;;;;;123.38;39.42;;;;;;;-1.40;97.55;99121.84;3510653;28;20054;-57
2021/01/22 06:51:14;;;;;;;124.47;39.40;;;;;;;-1.38;97.57;99137.16;3505456;28;20059;-57
2021/01/22 06:53:07;;;;;;;121.70;39.10;;;;;;;-1.37;97.46;99128.75;3508747;28;20090;-56
2021/01/22 06:55:04;;;;;;;133.32;38.35;;;;;;;-1.35;97.20;99137.31;3508553;28;20428;-57
2021/01/22 06:57:11;;;;;;;125.18;38.50;;;;;;;-1.33;97.43;99123.91;3506642;28;20045;-56
2021/01/22 06:58:53;;;;;;;122.18;39.10;;;;;;;-1.32;97.25;99123.09;3509481;28;20424;-57
2021/01/22 07:00:38;;;;;;;138.85;43.15;;;;;;;-1.30;97.43;99135.91;3507422;28;20062;-57
2021/01/22 07:02:38;;;;;;;125.75;38.10;;;;;;;-1.30;97.10;99134.22;3509177;28;20127;-57
2021/01/22 07:04:37;;;;;;;110.75;35.58;;;;;;;-1.27;97.14;99132.66;3505392;28;20055;-57
2021/01/22 07:06:51;;;;;;;109.72;34.67;;;;;;;-1.29;96.95;99124.94;3507475;28;20276;-57
2021/01/22 07:08:53;;;;;;;115.32;34.00;;;;;;;-1.29;96.91;99125.81;3508989;28;20428;-57
2021/01/22 07:11:03;;;;;;;99.72;34.92;;;;;;;-1.24;96.86;99122.59;3508033;28;20458;-46
2021/01/22 07:12:45;;;;;;;122.30;37.95;;;;;;;-1.21;96.80;99120.22;3512621;28;20048;-46
2021/01/22 07:14:38;;;;;;;114.75;37.42;;;;;;;-1.18;96.89;99122.94;3511762;28;20469;-48
2021/01/22 07:16:23;;;;;;;140.93;41.47;;;;;;;-1.16;97.08;99123.88;3513488;28;20082;-46
2021/01/22 07:18:05;;;;;;;110.82;39.35;;;;;;;-1.12;97.11;99126.69;3509419;28;20044;-45
2021/01/22 07:20:09;;;;;;;124.30;42.17;;;;;;;-1.08;96.81;99126.81;3514127;28;20044;-57
2021/01/22 07:21:51;;;;;;;123.00;39.10;;;;;;;-1.07;96.79;99128.56;3505897;28;20423;-57
2021/01/22 07:23:33;;;;;;;107.70;38.17;;;;;;;-1.06;96.57;99132.88;3513121;28;20450;-57
2021/01/22 07:25:29;;;;;;;110.00;35.40;;;;;;;-1.04;96.90;99121.97;3511532;28;20055;-57
2021/01/22 07:27:13;;;;;;;108.25;36.28;;;;;;;-1.01;96.65;99123.78;3507916;28;20409;-46
2021/01/22 07:28:54;;;;;;;121.40;40.45;;;;;;;-0.98;96.67;99124.81;3513609;28;20046;-45
2021/01/22 07:30:38;;;;;;;108.05;40.83;;;;;;;-0.96;96.62;99123.25;3509834;28;20054;-57
2021/01/22 07:32:28;;;;;;;112.63;38.22;;;;;;;-0.92;96.33;99134.44;3514203;28;20051;-56
2021/01/22 07:34:43;;;;;;;102.70;36.45;;;;;;;-0.87;96.20;99127.91;3511057;28;20507;-56
2021/01/22 07:36:25;;;;;;;107.40;34.28;;;;;;;-0.85;95.94;99133.97;3510842;28;20097;-56
2021/01/22 07:38:21;;;;;;;112.35;38.13;;;;;;;-0.82;95.93;99123.91;3509360;28;20048;-58
2021/01/22 07:40:08;;;;;;;110.60;36.35;;;;;;;-0.71;95.97;99124.47;3512062;28;20044;-58
2021/01/22 07:41:50;;;;;;;111.40;37.40;;;;;;;-0.65;96.02;99123.88;3507862;28;20098;-55
2021/01/22 07:43:32;;;;;;;107.70;38.58;;;;;;;-0.58;96.05;99120.84;3509175;28;20051;-55
2021/01/22 07:45:15;;;;;;;99.88;35.33;;;;;;;-0.51;95.76;99116.91;3507815;28;20051;-56
2021/01/22 07:46:59;;;;;;;101.90;36.83;;;;;;;-0.50;95.48;99118.66;3508640;28;20099;-55
2021/01/22 07:48:41;;;;;;;97.38;35.67;;;;;;;-0.48;95.38;99119.59;3508725;28;20052;-56
2021/01/22 07:50:23;;;;;;;98.18;35.28;;;;;;;-0.47;95.25;99116.25;3509386;28;20048;-56
2021/01/22 07:52:05;;;;;;;100.43;34.83;;;;;;;-0.51;94.56;99124.56;3508050;28;20047;-56
2021/01/22 07:53:55;;;;;;;89.85;34.50;;;;;;;-0.52;94.66;99123.66;3512815;28;20048;-56